Time;durP1;ratioP1;P1;durP2;ratioP2;P2;SDS_P1;SDS_P2;PMS_P1;PMS_P2;Temp;Humidity;BMP_temperature;BMP_pressure;BME280_temperature;BME280_humidity;BME280_pressure;Samples;Min_cycle;Max_cycle;Signal;HPM_P1;HPM_P2
2021/12/06 00:01:06;;;;;;;1.57;1.47;;;19.80;38.30;;;;;;5005630;28;20445;-57
2021/12/06 00:03:54;;;;;;;2.33;2.00;;;19.80;38.30;;;;;;5000512;28;20460;-57
2021/12/06 00:06:21;;;;;;;1.90;1.80;;;19.80;38.30;;;;;;4997976;28;20474;-57
2021/12/06 00:08:48;;;;;;;1.77;1.67;;;19.80;38.30;;;;;;5004294;28;20456;-57
2021/12/06 00:11:14;;;;;;;2.60;2.40;;;19.80;38.30;;;;;;4998325;28;20433;-57
2021/12/06 00:13:44;;;;;;;2.00;1.67;;;19.80;38.30;;;;;;5000950;28;20450;-58
2021/12/06 00:16:16;;;;;;;1.70;1.60;;;19.80;38.30;;;;;;5000857;28;20550;-57
2021/12/06 00:18:42;;;;;;;2.03;1.60;;;19.80;38.30;;;;;;5001261;28;20520;-58
2021/12/06 00:21:09;;;;;;;1.53;1.43;;;19.80;38.30;;;;;;5001108;28;20450;-57
2021/12/06 00:23:34;;;;;;;1.87;1.77;;;19.80;38.30;;;;;;5001617;28;20304;-57
2021/12/06 00:26:01;;;;;;;1.83;1.73;;;19.80;38.30;;;;;;5000816;28;20553;-57
2021/12/06 00:28:27;;;;;;;1.80;1.70;;;19.80;38.30;;;;;;5003454;28;20254;-61
2021/12/06 00:30:54;;;;;;;1.60;1.50;;;19.80;38.30;;;;;;5003116;28;20470;-60
2021/12/06 00:33:21;;;;;;;2.33;2.13;;;19.80;39.10;;;;;;4998546;28;20452;-59
2021/12/06 00:35:46;;;;;;;2.00;1.90;;;19.80;38.30;;;;;;5000526;28;20532;-59
2021/12/06 00:38:12;;;;;;;1.67;1.57;;;19.80;38.40;;;;;;5001905;28;20565;-59
2021/12/06 00:40:45;;;;;;;1.70;1.60;;;19.80;38.30;;;;;;5002622;28;20228;-59
2021/12/06 00:43:11;;;;;;;1.77;1.67;;;19.80;38.20;;;;;;5000827;28;20246;-58
2021/12/06 00:45:40;;;;;;;1.80;1.70;;;19.80;38.30;;;;;;5003004;28;20441;-58
2021/12/06 00:48:06;;;;;;;1.70;1.60;;;19.70;38.20;;;;;;5004268;28;20227;-58
2021/12/06 00:50:35;;;;;;;2.27;1.50;;;19.80;38.20;;;;;;5005676;28;20510;-58
2021/12/06 00:53:01;;;;;;;1.60;1.50;;;19.80;38.30;;;;;;4998681;28;20540;-59
2021/12/06 00:55:27;;;;;;;1.73;1.63;;;19.80;38.30;;;;;;4997588;28;20828;-58
2021/12/06 00:57:54;;;;;;;1.70;1.60;;;19.70;38.30;;;;;;5005755;28;20457;-59
2021/12/06 01:00:25;;;;;;;1.80;1.70;;;19.70;38.30;;;;;;4982102;28;20247;-59
2021/12/06 01:02:52;;;;;;;1.97;1.80;;;19.70;38.30;;;;;;5000752;28;20454;-59
2021/12/06 01:05:18;;;;;;;1.97;1.87;;;19.70;38.20;;;;;;4995896;28;20449;-58
2021/12/06 01:07:44;;;;;;;1.70;1.60;;;19.70;38.20;;;;;;5001283;28;20465;-59
2021/12/06 01:10:10;;;;;;;2.57;1.93;;;19.70;38.20;;;;;;4998702;28;20460;-58
2021/12/06 01:12:36;;;;;;;1.50;1.40;;;19.70;38.20;;;;;;4999490;28;20273;-58
2021/12/06 01:15:04;;;;;;;2.03;1.93;;;19.70;38.30;;;;;;4996352;28;20836;-58
2021/12/06 01:17:29;;;;;;;1.60;1.50;;;19.70;38.30;;;;;;5000943;28;20478;-59
2021/12/06 01:19:55;;;;;;;1.77;1.67;;;19.70;38.30;;;;;;4999824;28;20454;-58
2021/12/06 01:22:43;;;;;;;3.37;1.77;;;19.70;38.30;;;;;;4996217;28;20219;-59
2021/12/06 01:25:21;;;;;;;3.93;1.50;;;19.80;38.30;;;;;;4996871;28;20222;-58
2021/12/06 01:28:31;;;;;;;1.70;1.60;;;19.70;38.20;;;;;;4996796;28;20460;-58
2021/12/06 01:41:15;;;;;;;1.80;1.70;;;19.70;38.30;;;;;;4998278;28;20818;-58
2021/12/06 01:44:07;;;;;;;1.80;1.70;;;19.70;38.30;;;;;;5002919;28;20421;-58
2021/12/06 01:46:35;;;;;;;1.70;1.50;;;19.70;38.30;;;;;;4998212;28;20453;-58
2021/12/06 01:49:00;;;;;;;1.47;1.37;;;19.70;38.30;;;;;;4999986;28;20449;-58
2021/12/06 01:51:27;;;;;;;1.70;1.60;;;19.70;38.30;;;;;;5001794;28;20921;-58
2021/12/06 01:53:53;;;;;;;1.63;1.53;;;19.70;38.30;;;;;;4997125;28;20228;-58
2021/12/06 01:56:18;;;;;;;2.97;1.43;;;19.70;38.30;;;;;;4996623;28;20974;-59
2021/12/06 01:58:44;;;;;;;2.10;1.90;;;19.70;38.30;;;;;;4998815;28;20236;-59
2021/12/06 02:01:10;;;;;;;6.93;1.87;;;19.70;38.30;;;;;;4998894;28;20223;-58
2021/12/06 02:03:36;;;;;;;1.50;1.40;;;19.70;38.30;;;;;;4998194;28;20657;-59
2021/12/06 02:06:03;;;;;;;1.60;1.50;;;19.70;38.30;;;;;;5000655;28;20248;-58
2021/12/06 02:08:28;;;;;;;1.70;1.60;;;19.70;38.30;;;;;;4999762;28;20428;-58
2021/12/06 02:11:00;;;;;;;2.57;1.77;;;19.70;38.30;;;;;;5000381;28;20580;-58
2021/12/06 02:13:30;;;;;;;1.93;1.30;;;19.70;38.30;;;;;;4999775;28;20213;-58
2021/12/06 02:15:56;;;;;;;1.80;1.70;;;19.70;38.30;;;;;;4995852;28;20528;-58
2021/12/06 02:18:43;;;;;;;2.03;1.43;;;19.70;38.30;;;;;;5000316;28;20469;-58
2021/12/06 02:21:20;;;;;;;1.70;1.60;;;19.70;38.30;;;;;;4998104;28;20484;-58
2021/12/06 02:23:47;;;;;;;1.47;1.37;;;19.70;38.30;;;;;;4997997;28;20450;-58
2021/12/06 02:26:14;;;;;;;2.30;1.67;;;19.70;38.40;;;;;;4999413;28;20457;-59
2021/12/06 02:28:40;;;;;;;2.37;1.60;;;19.70;38.30;;;;;;4996862;28;20452;-58
2021/12/06 02:31:07;;;;;;;1.40;1.30;;;19.70;38.30;;;;;;5000157;28;20453;-58
2021/12/06 02:33:33;;;;;;;1.40;1.30;;;19.70;38.40;;;;;;5000260;28;20474;-59
2021/12/06 02:35:58;;;;;;;1.70;1.60;;;19.70;38.30;;;;;;4999390;28;21015;-58
2021/12/06 02:38:24;;;;;;;2.07;1.60;;;19.70;38.30;;;;;;5003678;28;20461;-58
2021/12/06 02:40:50;;;;;;;1.60;1.50;;;19.70;38.30;;;;;;5000923;28;20736;-58
2021/12/06 02:43:16;;;;;;;1.67;1.57;;;19.70;38.30;;;;;;5000388;28;20251;-58
2021/12/06 02:45:42;;;;;;;1.87;1.33;;;19.70;38.30;;;;;;5003887;28;20217;-58
2021/12/06 02:48:11;;;;;;;1.63;1.53;;;19.70;38.30;;;;;;5002324;28;20445;-58
2021/12/06 02:50:46;;;;;;;1.73;1.57;;;19.70;38.30;;;;;;4999942;28;20438;-58
2021/12/06 02:53:12;;;;;;;1.50;1.40;;;19.70;38.30;;;;;;5006091;28;20979;-60
2021/12/06 02:55:40;;;;;;;1.47;1.37;;;19.70;38.30;;;;;;5005071;28;20564;-58
2021/12/06 02:58:45;;;;;;;1.70;1.60;;;19.70;38.30;;;;;;5002864;28;20489;-58
2021/12/06 03:01:44;;;;;;;1.50;1.40;;;19.70;38.30;;;;;;5001186;28;20989;-58
2021/12/06 03:04:11;;;;;;;1.43;1.33;;;19.70;38.30;;;;;;5000437;28;20528;-58
2021/12/06 03:06:38;;;;;;;1.60;1.50;;;19.70;38.30;;;;;;5001813;28;20545;-58
2021/12/06 03:09:13;;;;;;;1.53;1.43;;;19.70;38.30;;;;;;4999601;28;20459;-58
2021/12/06 03:11:43;;;;;;;2.60;1.47;;;19.70;38.30;;;;;;5002779;28;20520;-58
2021/12/06 03:14:12;;;;;;;1.40;1.30;;;19.70;38.30;;;;;;5003575;28;20453;-58
2021/12/06 03:16:39;;;;;;;1.53;1.43;;;19.70;38.30;;;;;;5001288;28;20453;-58
2021/12/06 03:19:06;;;;;;;1.50;1.40;;;19.70;38.40;;;;;;5003426;28;20471;-58
2021/12/06 03:21:32;;;;;;;1.70;1.60;;;19.70;38.30;;;;;;5001056;28;20464;-58
2021/12/06 03:23:58;;;;;;;1.40;1.30;;;19.70;38.30;;;;;;4996243;28;20450;-58
2021/12/06 03:26:25;;;;;;;2.40;1.57;;;19.70;38.30;;;;;;5000674;28;20437;-58
2021/12/06 03:28:52;;;;;;;1.50;1.40;;;19.70;38.30;;;;;;5000455;28;20481;-58
2021/12/06 03:31:19;;;;;;;2.27;1.73;;;19.70;38.30;;;;;;4999989;28;20548;-58
2021/12/06 03:33:48;;;;;;;1.40;1.30;;;19.70;38.30;;;;;;5000804;28;20461;-58
2021/12/06 03:36:16;;;;;;;1.67;1.57;;;19.70;38.30;;;;;;4986309;28;20947;-58
2021/12/06 03:38:43;;;;;;;1.70;1.60;;;19.70;38.30;;;;;;5004298;28;20504;-61
2021/12/06 03:41:11;;;;;;;1.67;1.57;;;19.70;38.30;;;;;;4998078;28;20537;-58
2021/12/06 03:43:38;;;;;;;1.40;1.30;;;19.70;38.30;;;;;;5000618;28;20894;-58
2021/12/06 03:46:04;;;;;;;1.57;1.47;;;19.70;38.30;;;;;;4983534;28;20445;-58
2021/12/06 03:48:30;;;;;;;1.70;1.60;;;19.70;38.40;;;;;;5000907;28;20488;-58
2021/12/06 03:50:56;;;;;;;1.50;1.40;;;19.70;38.30;;;;;;5001263;28;20476;-58
2021/12/06 03:53:22;;;;;;;1.60;1.50;;;19.70;38.30;;;;;;4999960;28;20304;-58
2021/12/06 03:55:47;;;;;;;1.60;1.50;;;19.70;38.30;;;;;;5002944;28;20589;-58
2021/12/06 03:58:13;;;;;;;1.70;1.60;;;19.70;38.30;;;;;;5000279;28;20231;-59
2021/12/06 04:00:39;;;;;;;1.83;1.73;;;19.70;38.40;;;;;;4999679;28;20252;-59
2021/12/06 04:03:05;;;;;;;1.60;1.50;;;19.70;38.30;;;;;;5001536;28;20244;-59
2021/12/06 04:05:31;;;;;;;2.50;1.83;;;19.70;38.30;;;;;;5002339;28;20697;-59
2021/12/06 04:07:56;;;;;;;1.63;1.53;;;19.70;38.40;;;;;;5000425;28;20458;-59
2021/12/06 04:10:25;;;;;;;1.50;1.40;;;19.70;38.30;;;;;;5003176;28;20221;-59
2021/12/06 04:12:51;;;;;;;4.83;1.40;;;19.70;38.30;;;;;;5004814;28;20231;-59
2021/12/06 04:15:17;;;;;;;1.67;1.57;;;19.70;38.40;;;;;;5002656;28;20491;-59
2021/12/06 04:17:43;;;;;;;1.50;1.40;;;19.70;38.40;;;;;;4999272;28;20497;-59
2021/12/06 04:20:11;;;;;;;2.40;1.50;;;19.70;38.30;;;;;;5001401;28;20362;-59
2021/12/06 04:22:38;;;;;;;1.50;1.40;;;19.70;38.30;;;;;;4998395;28;20224;-58
2021/12/06 04:25:09;;;;;;;1.80;1.70;;;19.70;38.30;;;;;;5003165;28;20457;-59
2021/12/06 04:27:35;;;;;;;1.80;1.70;;;19.70;38.30;;;;;;5002071;28;20445;-59
2021/12/06 04:30:01;;;;;;;1.43;1.33;;;19.70;38.30;;;;;;5003006;28;20441;-58
2021/12/06 04:32:26;;;;;;;1.50;1.40;;;19.70;38.30;;;;;;5000503;28;20561;-59
2021/12/06 04:34:52;;;;;;;1.63;1.53;;;19.70;38.30;;;;;;4999071;28;20219;-59
2021/12/06 04:37:18;;;;;;;2.60;1.90;;;19.70;38.40;;;;;;4996163;28;20240;-59
2021/12/06 04:39:44;;;;;;;1.40;1.30;;;19.70;38.30;;;;;;5001769;28;21075;-59
2021/12/06 04:42:09;;;;;;;1.83;1.73;;;19.70;38.30;;;;;;4987319;28;20685;-59
2021/12/06 04:44:36;;;;;;;1.63;1.53;;;19.70;38.30;;;;;;5002075;28;20219;-59
2021/12/06 04:47:02;;;;;;;1.60;1.50;;;19.70;38.40;;;;;;4997173;28;20227;-59
2021/12/06 04:49:29;;;;;;;1.50;1.40;;;19.70;38.30;;;;;;5001389;28;20446;-59
2021/12/06 04:52:00;;;;;;;1.60;1.50;;;19.70;38.30;;;;;;5000473;28;20532;-58
2021/12/06 04:54:30;;;;;;;1.40;1.30;;;19.70;38.30;;;;;;5000070;28;20482;-58
2021/12/06 04:57:02;;;;;;;1.70;1.60;;;19.70;38.30;;;;;;5005243;28;20461;-58
2021/12/06 04:59:41;;;;;;;1.40;1.30;;;19.70;38.30;;;;;;4997559;28;20454;-58
2021/12/06 05:02:14;;;;;;;1.80;1.70;;;19.70;38.30;;;;;;4995960;28;20815;-58
2021/12/06 05:04:47;;;;;;;1.50;1.40;;;19.70;38.40;;;;;;5002919;28;20438;-58
2021/12/06 05:07:37;;;;;;;1.80;1.70;;;19.70;38.30;;;;;;4998690;28;20466;-59
2021/12/06 05:10:05;;;;;;;1.50;1.40;;;19.70;38.30;;;;;;4999349;28;20823;-58
2021/12/06 05:12:31;;;;;;;1.53;1.43;;;19.70;38.30;;;;;;5004328;28;20897;-58
2021/12/06 05:14:58;;;;;;;1.33;1.20;;;19.70;38.30;;;;;;5000512;28;20524;-58
2021/12/06 05:17:24;;;;;;;1.70;1.60;;;19.60;38.20;;;;;;4998073;28;20496;-58
2021/12/06 05:19:50;;;;;;;1.60;1.50;;;19.70;38.30;;;;;;4999325;28;20445;-58
2021/12/06 05:22:16;;;;;;;1.70;1.60;;;19.70;38.30;;;;;;4997569;28;20457;-59
2021/12/06 05:24:42;;;;;;;1.90;1.60;;;19.70;38.30;;;;;;5001989;28;20585;-58
2021/12/06 05:27:08;;;;;;;1.60;1.50;;;19.70;38.30;;;;;;5003412;28;20439;-61
2021/12/06 05:29:35;;;;;;;1.50;1.40;;;19.70;38.30;;;;;;5001628;28;20492;-59
2021/12/06 05:32:01;;;;;;;1.50;1.40;;;19.70;38.30;;;;;;4997674;28;20454;-59
2021/12/06 05:34:37;;;;;;;1.93;1.40;;;19.70;38.40;;;;;;5002119;28;20812;-59
2021/12/06 05:37:05;;;;;;;2.10;1.93;;;19.70;38.30;;;;;;4995614;28;20449;-58
2021/12/06 05:39:31;;;;;;;1.50;1.40;;;19.70;38.30;;;;;;4996545;28;20968;-58
2021/12/06 05:41:59;;;;;;;1.40;1.30;;;19.70;38.30;;;;;;5001062;28;20455;-59
2021/12/06 05:44:25;;;;;;;1.57;1.47;;;19.70;38.30;;;;;;4997912;28;20224;-61
2021/12/06 05:46:50;;;;;;;1.47;1.37;;;19.70;38.30;;;;;;5000991;28;20461;-60
2021/12/06 05:49:16;;;;;;;1.43;1.33;;;19.70;38.30;;;;;;4985083;28;20529;-59
2021/12/06 05:51:42;;;;;;;1.60;1.50;;;19.80;38.30;;;;;;5003124;28;20231;-59
2021/12/06 05:54:07;;;;;;;1.57;1.40;;;19.80;38.20;;;;;;5001769;28;20234;-59
2021/12/06 05:56:33;;;;;;;1.83;1.40;;;19.80;38.20;;;;;;5004182;28;20251;-58
2021/12/06 05:58:59;;;;;;;1.87;1.67;;;19.80;38.20;;;;;;5000719;28;20625;-58
2021/12/06 06:01:29;;;;;;;1.70;1.33;;;19.80;38.10;;;;;;5001318;28;20217;-58
2021/12/06 06:04:00;;;;;;;1.70;1.60;;;19.80;38.10;;;;;;5000091;28;20250;-58
2021/12/06 06:06:30;;;;;;;1.70;1.60;;;19.80;38.10;;;;;;5002815;28;20469;-58
2021/12/06 06:08:56;;;;;;;1.60;1.50;;;19.90;38.20;;;;;;4999936;28;20455;-58
2021/12/06 06:11:22;;;;;;;2.20;1.70;;;19.90;38.20;;;;;;4999312;28;20497;-58
2021/12/06 06:13:48;;;;;;;1.70;1.60;;;19.90;38.20;;;;;;5008056;28;20307;-58
2021/12/06 06:16:18;;;;;;;5.07;1.40;;;19.90;38.20;;;;;;5004041;28;20517;-59
2021/12/06 06:18:44;;;;;;;5.43;2.00;;;19.90;38.20;;;;;;5006060;28;20228;-59
2021/12/06 06:21:10;;;;;;;3.97;1.73;;;19.90;38.20;;;;;;5001671;28;21194;-60
2021/12/06 06:23:35;;;;;;;1.67;1.57;;;19.90;38.20;;;;;;5003336;28;20508;-59
2021/12/06 06:26:02;;;;;;;2.03;1.50;;;19.90;38.20;;;;;;5003744;28;20223;-58
2021/12/06 06:28:27;;;;;;;5.30;1.60;;;19.90;38.20;;;;;;5001989;28;20220;-58
2021/12/06 06:30:53;;;;;;;1.97;1.87;;;19.90;38.10;;;;;;5005754;28;20993;-58
2021/12/06 06:33:20;;;;;;;1.73;1.47;;;19.90;38.10;;;;;;5006856;28;20277;-58
2021/12/06 06:35:46;;;;;;;2.50;1.70;;;19.90;38.10;;;;;;5003755;28;20219;-58
2021/12/06 06:38:12;;;;;;;1.90;1.80;;;19.90;38.10;;;;;;4997533;28;20843;-59
2021/12/06 06:40:37;;;;;;;2.13;1.80;;;19.90;38.10;;;;;;5004192;28;20274;-59
2021/12/06 06:43:03;;;;;;;1.63;1.53;;;19.90;38.10;;;;;;5007553;28;20227;-59
2021/12/06 06:45:29;;;;;;;4.37;1.90;;;19.90;38.10;;;;;;5002947;28;20355;-59
2021/12/06 06:47:55;;;;;;;2.13;1.60;;;19.90;38.10;;;;;;5001807;28;20228;-58
2021/12/06 06:50:22;;;;;;;2.10;1.40;;;19.90;38.10;;;;;;5004313;28;20464;-58
2021/12/06 06:52:49;;;;;;;1.60;1.50;;;19.90;38.10;;;;;;4999746;28;20231;-59
2021/12/06 06:55:15;;;;;;;2.20;1.70;;;19.90;38.10;;;;;;5005265;28;20455;-59
2021/12/06 06:57:43;;;;;;;1.60;1.50;;;19.90;38.10;;;;;;5005361;28;20538;-58
2021/12/06 07:00:14;;;;;;;1.90;1.80;;;19.90;38.10;;;;;;5003521;28;20457;-58
2021/12/06 07:02:40;;;;;;;1.80;1.70;;;19.90;38.00;;;;;;4999693;28;20990;-58
2021/12/06 07:05:07;;;;;;;2.97;1.80;;;19.90;38.10;;;;;;5001546;28;20449;-59
2021/12/06 07:07:33;;;;;;;2.60;2.00;;;19.90;38.10;;;;;;4997520;28;20545;-59
2021/12/06 07:09:58;;;;;;;2.10;1.90;;;19.90;38.10;;;;;;5005542;28;20461;-58
2021/12/06 07:12:24;;;;;;;1.87;1.50;;;19.90;38.10;;;;;;5000292;28;20462;-59
2021/12/06 07:14:50;;;;;;;1.87;1.77;;;19.90;38.10;;;;;;4996945;28;20654;-58
2021/12/06 07:17:16;;;;;;;2.13;1.93;;;19.90;38.10;;;;;;4987186;28;20593;-58
2021/12/06 07:19:43;;;;;;;1.83;1.50;;;19.90;38.10;;;;;;5006826;28;20677;-60
2021/12/06 07:22:09;;;;;;;1.73;1.63;;;19.90;38.20;;;;;;5004788;28;20539;-59
2021/12/06 07:24:35;;;;;;;2.60;1.60;;;19.90;38.10;;;;;;4999464;28;20932;-59
2021/12/06 07:27:01;;;;;;;1.97;1.87;;;19.90;38.10;;;;;;5002843;28;20354;-59
2021/12/06 07:29:27;;;;;;;2.50;1.77;;;19.90;38.10;;;;;;4998401;28;20811;-59
2021/12/06 07:31:53;;;;;;;1.63;1.53;;;19.90;38.10;;;;;;5001252;28;20451;-59
2021/12/06 07:34:19;;;;;;;1.80;1.70;;;19.90;38.10;;;;;;5001918;28;20469;-59
2021/12/06 07:36:45;;;;;;;2.40;2.20;;;19.90;38.10;;;;;;5002084;28;20283;-58
2021/12/06 07:39:10;;;;;;;1.70;1.60;;;19.90;38.10;;;;;;5002721;28;20428;-58
2021/12/06 07:41:37;;;;;;;1.70;1.60;;;19.90;38.10;;;;;;5000064;28;20446;-58
2021/12/06 07:44:04;;;;;;;1.97;1.87;;;19.90;38.90;;;;;;5006454;28;20235;-58
2021/12/06 07:46:30;;;;;;;1.80;1.70;;;19.90;38.10;;;;;;5004031;28;20497;-58
2021/12/06 07:48:56;;;;;;;1.97;1.87;;;19.90;38.10;;;;;;5001616;28;20472;-58
2021/12/06 07:51:23;;;;;;;1.60;1.50;;;19.90;38.20;;;;;;5003071;28;20445;-59
2021/12/06 07:53:50;;;;;;;1.70;1.60;;;19.90;38.10;;;;;;5000513;28;20274;-59
2021/12/06 07:56:16;;;;;;;1.90;1.80;;;19.90;38.10;;;;;;5001150;28;20441;-58
2021/12/06 07:58:42;;;;;;;1.90;1.60;;;19.90;38.10;;;;;;5001492;28;20552;-58
2021/12/06 08:01:09;;;;;;;1.70;1.60;;;19.90;38.10;;;;;;5002512;28;20529;-58
2021/12/06 08:03:36;;;;;;;1.73;1.60;;;19.90;38.90;;;;;;5002467;28;20223;-58
2021/12/06 08:06:03;;;;;;;2.03;1.93;;;19.90;38.20;;;;;;5000387;28;20540;-58
2021/12/06 08:08:31;;;;;;;1.83;1.50;;;19.90;38.10;;;;;;5001461;28;20513;-58
2021/12/06 08:11:00;;;;;;;1.80;1.70;;;19.90;38.10;;;;;;5000652;28;20528;-58
2021/12/06 08:13:28;;;;;;;2.70;1.70;;;19.90;38.10;;;;;;5006120;28;20463;-59
2021/12/06 08:15:56;;;;;;;1.87;1.77;;;19.90;38.10;;;;;;5004554;28;21000;-58
2021/12/06 08:18:22;;;;;;;1.80;1.70;;;19.90;38.10;;;;;;5004318;28;20533;-58
2021/12/06 08:20:49;;;;;;;1.80;1.70;;;19.90;38.10;;;;;;5003052;28;20457;-59
2021/12/06 08:23:15;;;;;;;2.03;1.70;;;19.90;38.10;;;;;;5000578;28;20270;-58
2021/12/06 08:25:44;;;;;;;1.50;1.40;;;19.90;38.10;;;;;;5002008;28;20951;-59
2021/12/06 08:28:09;;;;;;;2.00;1.80;;;19.90;38.10;;;;;;5003476;28;20445;-59
2021/12/06 08:30:35;;;;;;;1.80;1.70;;;19.90;38.10;;;;;;5000465;28;21398;-58
2021/12/06 08:33:04;;;;;;;2.00;1.90;;;19.90;38.10;;;;;;5000513;28;20275;-59
2021/12/06 08:35:30;;;;;;;1.77;1.63;;;19.90;38.00;;;;;;4979593;28;20462;-58
2021/12/06 08:37:58;;;;;;;1.70;1.60;;;19.90;38.00;;;;;;5001736;28;20469;-58
2021/12/06 08:40:26;;;;;;;1.63;1.53;;;19.90;38.00;;;;;;5002909;28;20449;-58
2021/12/06 08:42:52;;;;;;;1.67;1.57;;;19.90;38.00;;;;;;4999494;28;20485;-58
2021/12/06 08:45:18;;;;;;;1.80;1.70;;;19.90;38.00;;;;;;5001676;28;20519;-58
2021/12/06 08:47:43;;;;;;;1.90;1.80;;;19.90;38.00;;;;;;5002431;28;20216;-59
2021/12/06 08:50:15;;;;;;;2.90;2.17;;;19.90;38.00;;;;;;4999441;28;20228;-58
2021/12/06 08:52:41;;;;;;;2.67;1.77;;;19.90;38.00;;;;;;5005177;28;20212;-58
2021/12/06 08:55:09;;;;;;;1.90;1.80;;;19.90;38.00;;;;;;5005929;28;20460;-58
2021/12/06 08:57:35;;;;;;;1.73;1.63;;;19.90;38.00;;;;;;4998305;28;20470;-58
2021/12/06 09:00:07;;;;;;;1.73;1.63;;;19.90;38.00;;;;;;5001153;28;20453;-58
2021/12/06 09:02:33;;;;;;;1.70;1.60;;;20.00;38.00;;;;;;4997820;28;20486;-59
2021/12/06 09:04:59;;;;;;;1.80;1.70;;;19.90;38.00;;;;;;5001104;28;20509;-58
2021/12/06 09:07:25;;;;;;;2.00;1.90;;;19.90;38.00;;;;;;4996896;28;20240;-58
2021/12/06 09:09:55;;;;;;;2.00;1.90;;;19.90;38.00;;;;;;5003910;28;20460;-58
2021/12/06 09:12:26;;;;;;;2.03;1.90;;;19.90;37.90;;;;;;4999598;28;20227;-58
2021/12/06 09:14:53;;;;;;;1.83;1.73;;;19.90;37.90;;;;;;4999289;28;20512;-58
2021/12/06 09:17:19;;;;;;;1.97;1.60;;;19.90;37.90;;;;;;4993981;28;20481;-58
2021/12/06 09:19:45;;;;;;;1.97;1.77;;;19.90;37.90;;;;;;4997763;28;20442;-58
2021/12/06 09:22:11;;;;;;;1.73;1.60;;;19.90;37.90;;;;;;5004280;28;20592;-58
2021/12/06 09:24:37;;;;;;;2.07;1.70;;;19.90;37.80;;;;;;5002388;28;20457;-58
2021/12/06 09:27:04;;;;;;;2.00;1.90;;;19.90;37.80;;;;;;5000873;28;20234;-58
2021/12/06 09:29:32;;;;;;;1.67;1.57;;;19.90;37.80;;;;;;5002072;28;20221;-58
2021/12/06 09:31:59;;;;;;;2.00;1.90;;;19.90;37.90;;;;;;5000188;28;20457;-58
2021/12/06 09:34:26;;;;;;;2.13;1.70;;;19.90;37.90;;;;;;4997959;28;20792;-58
2021/12/06 09:36:52;;;;;;;2.70;1.90;;;19.90;37.80;;;;;;4999188;28;20512;-58
2021/12/06 09:39:18;;;;;;;1.70;1.57;;;19.90;37.90;;;;;;4999178;28;20866;-59
2021/12/06 09:41:44;;;;;;;2.13;1.93;;;19.90;37.90;;;;;;4999687;28;20236;-59
2021/12/06 09:44:10;;;;;;;2.00;1.90;;;19.90;37.80;;;;;;4997666;28;20287;-59
2021/12/06 09:46:37;;;;;;;2.00;1.80;;;19.90;37.90;;;;;;4998662;28;20224;-58
2021/12/06 09:49:07;;;;;;;1.83;1.73;;;19.90;37.90;;;;;;4999431;28;20525;-58
2021/12/06 09:51:34;;;;;;;1.73;1.63;;;19.90;37.80;;;;;;4999956;28;20474;-58
2021/12/06 09:54:00;;;;;;;1.70;1.60;;;19.90;37.80;;;;;;4999681;28;20450;-59
2021/12/06 09:56:34;;;;;;;1.80;1.70;;;19.90;37.80;;;;;;4990898;28;20552;-58
2021/12/06 09:59:03;;;;;;;1.90;1.80;;;19.90;37.80;;;;;;4997969;28;20246;-58
2021/12/06 10:01:34;;;;;;;1.90;1.77;;;19.90;37.90;;;;;;4999840;28;20613;-58
2021/12/06 10:04:00;;;;;;;2.10;2.00;;;19.90;37.80;;;;;;4999612;28;20466;-58
2021/12/06 10:06:28;;;;;;;2.07;1.57;;;19.90;37.80;;;;;;4999153;28;20493;-58
2021/12/06 10:08:56;;;;;;;1.67;1.57;;;19.90;37.90;;;;;;4998907;28;20493;-58
2021/12/06 10:11:24;;;;;;;1.77;1.67;;;19.90;37.90;;;;;;4997308;28;20457;-58
2021/12/06 10:13:52;;;;;;;1.90;1.70;;;19.90;37.90;;;;;;5000214;28;20457;-58
2021/12/06 10:16:19;;;;;;;1.73;1.63;;;20.00;38.00;;;;;;5000964;28;20446;-58
2021/12/06 10:18:46;;;;;;;1.77;1.67;;;19.90;37.90;;;;;;5003268;28;20462;-58
2021/12/06 10:21:13;;;;;;;2.07;1.97;;;19.90;37.80;;;;;;4999512;28;20439;-58
2021/12/06 10:23:41;;;;;;;1.70;1.60;;;19.90;37.90;;;;;;5002973;28;20481;-58
2021/12/06 10:26:09;;;;;;;2.60;2.40;;;19.90;37.80;;;;;;4999497;28;20459;-58
2021/12/06 10:28:38;;;;;;;1.70;1.60;;;19.90;37.90;;;;;;5002712;28;20459;-58
2021/12/06 10:31:06;;;;;;;1.87;1.77;;;19.90;37.80;;;;;;5002429;28;20421;-58
2021/12/06 10:33:35;;;;;;;1.80;1.60;;;19.90;37.90;;;;;;5002946;28;20499;-58
2021/12/06 10:36:10;;;;;;;1.90;1.80;;;19.90;37.90;;;;;;4998510;28;20471;-58
2021/12/06 10:38:39;;;;;;;2.53;2.33;;;19.90;37.80;;;;;;4987778;28;20488;-58
2021/12/06 10:41:11;;;;;;;1.83;1.73;;;19.90;37.80;;;;;;5000311;28;20444;-58
2021/12/06 10:43:39;;;;;;;2.07;1.97;;;19.90;37.90;;;;;;4996053;28;20413;-58
2021/12/06 10:46:06;;;;;;;2.67;2.00;;;19.90;37.80;;;;;;5002324;28;20934;-58
2021/12/06 10:48:36;;;;;;;2.13;2.03;;;19.90;37.80;;;;;;4997509;28;23245;-58
2021/12/06 10:51:12;;;;;;;2.27;2.17;;;19.90;37.80;;;;;;4999602;28;20449;-58
2021/12/06 10:53:43;;;;;;;2.00;1.90;;;19.90;37.90;;;;;;4995129;28;21357;-58
2021/12/06 10:56:20;;;;;;;2.57;2.37;;;19.90;37.90;;;;;;5001018;28;20507;-58
2021/12/06 10:58:48;;;;;;;2.23;2.03;;;19.90;37.80;;;;;;5001300;28;20519;-58
2021/12/06 11:01:21;;;;;;;2.20;2.10;;;19.90;37.80;;;;;;5004113;28;20488;-58
2021/12/06 11:03:51;;;;;;;1.93;1.83;;;19.90;37.80;;;;;;5004126;28;20461;-58
2021/12/06 11:06:30;;;;;;;2.13;2.03;;;19.90;37.80;;;;;;5005281;28;20507;-58
2021/12/06 11:09:04;;;;;;;2.30;2.20;;;19.90;37.90;;;;;;5001969;28;20457;-58
2021/12/06 11:11:36;;;;;;;2.20;2.00;;;19.90;37.90;;;;;;4999599;28;20962;-58
2021/12/06 11:14:06;;;;;;;2.07;1.97;;;19.90;37.80;;;;;;5001382;28;20450;-58
2021/12/06 11:16:34;;;;;;;2.07;1.97;;;19.90;37.80;;;;;;5000756;28;20442;-58
2021/12/06 11:19:06;;;;;;;2.20;2.07;;;19.90;37.80;;;;;;5006430;28;20447;-58
2021/12/06 11:21:44;;;;;;;2.30;2.20;;;19.90;38.60;;;;;;5001404;28;20416;-58
2021/12/06 11:24:23;;;;;;;2.23;2.03;;;19.90;37.80;;;;;;5004651;28;20503;-58
2021/12/06 11:26:48;;;;;;;2.30;2.20;;;19.90;37.80;;;;;;5000462;28;20425;-58
2021/12/06 11:29:20;;;;;;;2.93;2.27;;;19.90;37.80;;;;;;5001807;28;20972;-58
2021/12/06 11:31:57;;;;;;;2.90;2.70;;;19.90;37.80;;;;;;5001181;28;20267;-58
2021/12/06 11:34:27;;;;;;;3.13;2.90;;;19.90;37.80;;;;;;5005280;28;20457;-58
2021/12/06 11:36:54;;;;;;;2.60;2.40;;;19.90;37.80;;;;;;5002589;28;20535;-58
2021/12/06 11:39:23;;;;;;;2.50;2.30;;;19.90;37.80;;;;;;5002956;28;20469;-58
2021/12/06 11:41:54;;;;;;;4.90;3.53;;;19.80;37.70;;;;;;4998541;28;20798;-58
2021/12/06 11:44:35;;;;;;;2.27;2.07;;;19.90;37.80;;;;;;4999007;28;20439;-58
2021/12/06 11:47:03;;;;;;;2.80;2.60;;;19.90;37.80;;;;;;4987710;28;20428;-58
2021/12/06 11:49:35;;;;;;;2.40;2.20;;;19.80;37.70;;;;;;4998198;28;20472;-58
2021/12/06 11:52:03;;;;;;;2.60;2.40;;;19.80;37.70;;;;;;5001123;28;20776;-58
2021/12/06 11:54:39;;;;;;;3.00;2.70;;;19.80;37.80;;;;;;5002977;28;20537;-58
2021/12/06 11:57:10;;;;;;;2.50;2.30;;;19.90;37.80;;;;;;5000727;28;20452;-57
2021/12/06 11:59:46;;;;;;;4.17;3.07;;;19.90;37.90;;;;;;5003829;28;20431;-58
2021/12/06 12:02:11;;;;;;;3.23;3.00;;;19.80;37.70;;;;;;5002831;28;20462;-58
2021/12/06 12:04:37;;;;;;;2.90;2.60;;;19.80;37.80;;;;;;4996186;28;20541;-57
2021/12/06 12:07:05;;;;;;;2.60;2.40;;;19.80;37.70;;;;;;4996398;28;20241;-57
2021/12/06 12:09:36;;;;;;;2.20;2.10;;;19.80;37.80;;;;;;4998659;28;20244;-58
2021/12/06 12:12:22;;;;;;;2.70;2.50;;;19.80;37.70;;;;;;4992392;28;20475;-58
2021/12/06 12:14:54;;;;;;;3.43;2.67;;;19.80;37.80;;;;;;5000772;28;20450;-58
2021/12/06 12:17:27;;;;;;;2.90;2.50;;;19.80;37.70;;;;;;4997451;28;20483;-58
2021/12/06 12:19:55;;;;;;;2.50;2.30;;;19.80;37.70;;;;;;4999908;28;20467;-58
2021/12/06 12:22:23;;;;;;;2.50;2.40;;;19.90;37.80;;;;;;5000224;28;20909;-58
2021/12/06 12:24:50;;;;;;;3.27;2.83;;;19.90;37.80;;;;;;4998053;28;20948;-58
2021/12/06 12:29:46;;;;;;;2.70;2.50;;;19.90;37.80;;;;;;5001363;28;20446;-58
2021/12/06 12:32:12;;;;;;;5.60;3.47;;;19.90;38.60;;;;;;4998916;28;20443;-58
2021/12/06 12:34:44;;;;;;;2.30;2.10;;;19.90;37.90;;;;;;5002306;28;20573;-58
2021/12/06 12:37:12;;;;;;;2.87;2.67;;;19.80;37.80;;;;;;4997999;28;20441;-58
2021/12/06 12:39:38;;;;;;;3.03;2.83;;;19.90;37.80;;;;;;4997659;28;20457;-58
2021/12/06 12:42:06;;;;;;;2.77;2.57;;;19.80;37.70;;;;;;5001066;28;20434;-57
2021/12/06 12:44:46;;;;;;;2.50;2.27;;;19.80;37.70;;;;;;5003221;28;20216;-57
2021/12/06 12:47:18;;;;;;;2.63;2.43;;;19.90;37.80;;;;;;5002532;28;20441;-57
2021/12/06 12:49:47;;;;;;;2.87;2.67;;;19.80;37.70;;;;;;4998571;28;20483;-57
2021/12/06 12:52:13;;;;;;;2.70;2.50;;;19.80;37.70;;;;;;4998122;28;20528;-58
2021/12/06 12:54:44;;;;;;;4.37;2.93;;;19.90;37.80;;;;;;4987473;28;20496;-57
2021/12/06 12:57:14;;;;;;;2.80;2.60;;;19.80;37.70;;;;;;4999417;28;20220;-57
2021/12/06 12:59:50;;;;;;;4.13;2.63;;;19.90;37.90;;;;;;5002217;28;20847;-57
2021/12/06 13:02:26;;;;;;;2.60;2.50;;;19.90;37.70;;;;;;5001042;28;20945;-58
2021/12/06 13:04:57;;;;;;;3.07;2.87;;;19.90;37.70;;;;;;4996480;28;20460;-57
2021/12/06 13:07:39;;;;;;;3.07;2.87;;;19.90;37.80;;;;;;5003124;28;20470;-57